createdAt,value
2023-01-26T00:02:02.361Z,46.23
2023-01-26T00:04:30.413Z,44.23
2023-01-26T00:06:58.220Z,44.27
2023-01-26T00:09:26.261Z,44.33
2023-01-26T00:11:54.229Z,43.63
2023-01-26T00:14:22.285Z,44.27
2023-01-26T00:16:49.959Z,48.00
2023-01-26T00:19:18.052Z,47.30
2023-01-26T00:21:45.858Z,44.33
2023-01-26T00:24:14.083Z,45.43
2023-01-26T00:26:41.948Z,46.00
2023-01-26T00:29:09.912Z,47.20
2023-01-26T00:31:37.860Z,47.23
2023-01-26T00:34:05.999Z,48.70
2023-01-26T00:36:34.417Z,45.60
2023-01-26T00:39:03.076Z,49.30
2023-01-26T00:41:49.466Z,49.20
2023-01-26T00:44:17.548Z,46.90
2023-01-26T00:46:45.832Z,47.67
2023-01-26T00:49:15.515Z,46.17
2023-01-26T00:51:44.525Z,45.77
2023-01-26T00:54:13.265Z,44.77
2023-01-26T00:56:40.912Z,44.57
2023-01-26T00:59:09.011Z,47.57
2023-01-26T01:01:37.717Z,45.37
2023-01-26T01:04:07.734Z,48.93
2023-01-26T01:06:35.428Z,46.67
2023-01-26T01:09:03.499Z,48.77
2023-01-26T01:11:31.173Z,48.27
2023-01-26T01:13:59.527Z,44.90
2023-01-26T01:16:29.611Z,47.27
2023-01-26T01:18:58.668Z,50.07
2023-01-26T01:21:27.025Z,47.03
2023-01-26T01:23:55.332Z,47.73
2023-01-26T01:26:23.413Z,47.43
2023-01-26T01:28:54.247Z,51.87
2023-01-26T01:31:22.382Z,49.23
2023-01-26T01:33:50.549Z,46.47
2023-01-26T01:36:19.755Z,50.20
2023-01-26T01:38:48.228Z,48.43
2023-01-26T01:41:19.756Z,52.50
2023-01-26T01:43:48.067Z,55.30
2023-01-26T01:46:24.239Z,50.77
2023-01-26T01:48:58.953Z,52.80
2023-01-26T01:51:38.812Z,50.97
2023-01-26T01:54:11.662Z,50.47
2023-01-26T01:56:41.833Z,46.70
2023-01-26T01:59:12.020Z,51.67
2023-01-26T02:01:39.842Z,51.23
2023-01-26T02:04:08.641Z,52.77
2023-01-26T02:06:40.086Z,51.83
2023-01-26T02:09:08.259Z,49.10
2023-01-26T02:11:39.355Z,57.40
2023-01-26T02:14:09.428Z,53.07
2023-01-26T02:16:40.081Z,52.93
2023-01-26T02:19:13.147Z,55.97
2023-01-26T02:21:41.618Z,54.73
2023-01-26T02:24:23.389Z,60.70
2023-01-26T02:26:51.446Z,58.70
2023-01-26T02:29:19.505Z,70.90
2023-01-26T02:31:47.362Z,52.63
2023-01-26T02:34:15.582Z,57.07
2023-01-26T02:36:43.407Z,57.20
2023-01-26T02:39:49.816Z,63.00
2023-01-26T02:42:37.281Z,57.53
2023-01-26T02:45:08.307Z,59.50
2023-01-26T02:47:36.265Z,68.47
2023-01-26T02:50:06.815Z,59.83
2023-01-26T02:52:34.862Z,61.00
2023-01-26T02:55:28.583Z,63.20
2023-01-26T02:58:01.195Z,56.87
2023-01-26T03:00:37.322Z,58.00
2023-01-26T03:03:08.973Z,58.83
2023-01-26T03:05:36.962Z,62.50
2023-01-26T03:08:06.265Z,74.23
2023-01-26T03:10:37.572Z,67.47
2023-01-26T03:13:07.479Z,64.43
2023-01-26T03:15:43.383Z,63.07
2023-01-26T03:18:33.572Z,61.93
2023-01-26T03:21:21.504Z,71.93
2023-01-26T03:24:08.112Z,65.53
2023-01-26T03:26:54.946Z,68.40
2023-01-26T03:29:23.095Z,66.13
2023-01-26T03:31:53.531Z,73.90
2023-01-26T03:34:21.883Z,72.07
2023-01-26T03:36:49.974Z,68.40
2023-01-26T03:39:38.260Z,72.57
2023-01-26T03:42:25.373Z,63.87
2023-01-26T03:45:11.923Z,69.53
2023-01-26T03:48:01.201Z,73.60
2023-01-26T03:50:48.725Z,71.70
2023-01-26T03:53:40.604Z,71.77
2023-01-26T03:56:22.961Z,70.10
2023-01-26T03:58:54.748Z,69.03
2023-01-26T04:01:28.945Z,74.63
2023-01-26T04:04:18.178Z,73.33
2023-01-26T04:07:07.167Z,72.53
2023-01-26T04:09:37.158Z,74.83
2023-01-26T04:12:05.023Z,76.77
2023-01-26T04:14:54.621Z,77.93
2023-01-26T04:17:44.006Z,68.27
2023-01-26T04:20:31.085Z,66.77
2023-01-26T04:22:58.799Z,71.70
2023-01-26T04:25:26.805Z,71.20
2023-01-26T04:27:57.058Z,69.63
2023-01-26T04:30:25.185Z,70.20
2023-01-26T04:32:53.285Z,71.13
2023-01-26T04:35:21.476Z,70.40
2023-01-26T04:37:49.373Z,72.13
2023-01-26T04:40:18.380Z,68.07
2023-01-26T04:42:47.360Z,69.93
2023-01-26T04:45:15.529Z,71.77
2023-01-26T04:47:45.151Z,69.43
2023-01-26T04:50:14.094Z,67.83
2023-01-26T04:52:42.333Z,69.93
2023-01-26T04:55:10.464Z,69.20
2023-01-26T04:57:39.671Z,67.83
2023-01-26T05:00:08.964Z,63.80
2023-01-26T05:02:37.265Z,62.73
2023-01-26T05:05:05.654Z,70.97
2023-01-26T05:07:33.536Z,66.67
2023-01-26T05:10:01.938Z,61.73
2023-01-26T05:12:55.054Z,63.20
2023-01-26T05:15:23.351Z,64.57
2023-01-26T05:18:12.004Z,63.30
2023-01-26T05:20:49.008Z,62.20
2023-01-26T05:23:28.276Z,69.87
2023-01-26T05:26:14.895Z,62.90
2023-01-26T05:29:03.190Z,64.03
2023-01-26T05:31:31.282Z,67.43
2023-01-26T05:33:59.886Z,63.00
2023-01-26T05:36:28.213Z,66.03
2023-01-26T05:38:56.605Z,63.43
2023-01-26T05:41:27.564Z,62.20
2023-01-26T05:44:15.941Z,59.90
2023-01-26T05:46:58.804Z,60.07
2023-01-26T05:49:27.443Z,59.73
2023-01-26T05:51:56.277Z,60.30
2023-01-26T05:54:25.838Z,60.07
2023-01-26T05:56:54.882Z,56.63
2023-01-26T05:59:22.872Z,54.90
2023-01-26T06:01:51.004Z,50.27
2023-01-26T06:04:19.005Z,50.23
2023-01-26T06:06:54.149Z,51.83
2023-01-26T06:09:29.322Z,51.57
2023-01-26T06:12:20.039Z,51.63
2023-01-26T06:15:08.264Z,51.17
2023-01-26T06:17:40.871Z,52.43
2023-01-26T06:20:11.547Z,47.63
2023-01-26T06:22:40.473Z,43.50
2023-01-26T06:25:08.514Z,46.20
2023-01-26T06:27:36.788Z,45.67
2023-01-26T06:30:12.147Z,48.00
2023-01-26T06:32:41.843Z,46.10
2023-01-26T06:35:09.843Z,46.00
2023-01-26T06:37:38.781Z,46.47
2023-01-26T06:40:06.967Z,45.00
2023-01-26T06:42:36.126Z,47.30
2023-01-26T06:45:04.409Z,46.20
2023-01-26T06:47:34.168Z,45.17
2023-01-26T06:50:03.902Z,45.93
2023-01-26T06:52:33.540Z,44.77
2023-01-26T06:55:22.751Z,47.10
2023-01-26T06:58:00.928Z,43.73
2023-01-26T07:01:04.160Z,44.97
2023-01-26T07:03:35.457Z,44.60
2023-01-26T07:06:03.245Z,42.40
2023-01-26T07:08:31.681Z,43.00
2023-01-26T07:10:59.707Z,42.20
2023-01-26T07:13:28.016Z,43.43
2023-01-26T07:16:09.605Z,39.97
2023-01-26T07:18:37.845Z,45.13
2023-01-26T07:21:18.389Z,43.13
2023-01-26T07:23:47.130Z,44.53
2023-01-26T07:26:15.034Z,43.27
2023-01-26T07:28:43.164Z,43.27
2023-01-26T07:31:12.113Z,41.40
2023-01-26T07:33:40.495Z,45.80
2023-01-26T07:36:08.641Z,46.40
2023-01-26T07:38:36.620Z,49.27
2023-01-26T07:41:08.564Z,50.73
2023-01-26T07:43:37.964Z,43.30
2023-01-26T07:46:10.944Z,43.83
2023-01-26T07:48:39.177Z,46.23
2023-01-26T07:51:09.340Z,45.03
2023-01-26T07:53:39.724Z,44.53
2023-01-26T07:56:08.349Z,41.47
2023-01-26T07:58:36.405Z,43.73
2023-01-26T08:01:12.427Z,41.57
2023-01-26T08:03:41.023Z,44.27
2023-01-26T08:06:11.952Z,41.93
2023-01-26T08:08:41.702Z,38.87
2023-01-26T08:11:09.682Z,40.07
2023-01-26T08:13:38.252Z,41.07
2023-01-26T08:16:09.625Z,41.47
2023-01-26T08:18:37.581Z,40.13
2023-01-26T08:21:05.289Z,47.03
2023-01-26T08:23:33.205Z,50.93
2023-01-26T08:26:08.514Z,50.67
2023-01-26T08:28:36.858Z,68.63
2023-01-26T08:31:05.866Z,56.93
2023-01-26T08:33:34.696Z,52.07
2023-01-26T08:36:06.063Z,49.30
2023-01-26T08:38:34.743Z,43.33
2023-01-26T08:41:02.920Z,43.93
2023-01-26T08:43:31.098Z,48.20
2023-01-26T08:45:58.989Z,46.63
2023-01-26T08:48:27.403Z,45.47
2023-01-26T08:50:59.376Z,40.60
2023-01-26T08:53:27.621Z,43.17
2023-01-26T08:55:55.424Z,38.63
2023-01-26T08:58:23.411Z,37.77
2023-01-26T09:00:51.096Z,38.43
2023-01-26T09:03:19.493Z,36.73
2023-01-26T09:05:47.840Z,39.30
2023-01-26T09:08:16.049Z,37.10
2023-01-26T09:10:45.432Z,38.80
2023-01-26T09:13:13.458Z,39.67
2023-01-26T09:15:41.256Z,41.77
2023-01-26T09:18:10.084Z,43.47
2023-01-26T09:20:40.762Z,37.40
2023-01-26T09:23:08.809Z,35.80
2023-01-26T09:25:40.383Z,38.90
2023-01-26T09:28:08.458Z,32.13
2023-01-26T09:30:36.289Z,35.63
2023-01-26T09:33:06.901Z,32.37
2023-01-26T09:35:34.498Z,32.87
2023-01-26T09:38:02.690Z,35.57
2023-01-26T09:40:38.484Z,32.10
2023-01-26T09:43:06.470Z,32.87
2023-01-26T09:45:54.868Z,29.97
2023-01-26T09:48:38.686Z,30.40
2023-01-26T09:51:20.487Z,32.93
2023-01-26T09:54:08.727Z,31.13
2023-01-26T09:56:36.509Z,29.50
2023-01-26T09:59:23.266Z,30.40
2023-01-26T10:01:54.493Z,26.90
2023-01-26T10:04:25.280Z,26.93
2023-01-26T10:06:56.747Z,29.07
2023-01-26T10:09:46.166Z,26.70
2023-01-26T10:12:36.402Z,27.20
2023-01-26T10:15:10.996Z,27.07
2023-01-26T10:17:42.940Z,27.03
2023-01-26T10:20:31.216Z,28.67
2023-01-26T10:23:02.857Z,27.17
2023-01-26T10:25:38.610Z,27.70
2023-01-26T10:28:20.604Z,28.80
2023-01-26T10:30:49.263Z,30.37
2023-01-26T10:33:23.704Z,28.90
2023-01-26T10:35:51.662Z,27.27
2023-01-26T10:38:40.525Z,26.90
2023-01-26T10:41:20.076Z,27.50
2023-01-26T10:44:18.568Z,25.43
2023-01-26T10:46:46.582Z,24.37
2023-01-26T10:49:16.461Z,25.63
2023-01-26T10:51:45.859Z,24.97
2023-01-26T10:54:23.192Z,26.67
2023-01-26T10:56:54.115Z,23.77
2023-01-26T10:59:30.684Z,24.97
2023-01-26T11:02:00.974Z,25.77
2023-01-26T11:04:29.418Z,25.37
2023-01-26T11:07:15.067Z,21.70
2023-01-26T11:09:42.783Z,22.97
2023-01-26T11:12:18.386Z,23.17
2023-01-26T11:15:01.642Z,20.60
2023-01-26T11:17:52.399Z,22.23
2023-01-26T11:20:49.523Z,22.10
2023-01-26T11:23:46.276Z,22.87
2023-01-26T11:26:44.097Z,22.73
2023-01-26T11:29:29.827Z,19.80
2023-01-26T11:32:31.418Z,20.40
2023-01-26T11:35:18.504Z,22.23
2023-01-26T11:37:53.957Z,22.03
2023-01-26T11:40:51.830Z,20.67
2023-01-26T11:43:49.975Z,22.90
2023-01-26T11:46:35.470Z,24.17
2023-01-26T11:49:07.777Z,29.33
2023-01-26T11:51:57.391Z,26.90
2023-01-26T11:54:25.637Z,28.43
2023-01-26T11:57:33.639Z,24.77
2023-01-26T12:00:06.089Z,23.40
2023-01-26T12:02:43.634Z,24.30
2023-01-26T12:05:18.153Z,25.60
2023-01-26T12:07:56.951Z,25.23
2023-01-26T12:10:34.016Z,24.67
2023-01-26T12:13:18.203Z,26.53
2023-01-26T12:15:53.154Z,27.63
2023-01-26T12:18:58.706Z,30.47
2023-01-26T12:21:28.682Z,27.43
2023-01-26T12:24:12.842Z,26.47
2023-01-26T12:27:07.607Z,28.40
2023-01-26T12:29:45.230Z,29.93
2023-01-26T12:32:17.077Z,28.73
2023-01-26T12:34:47.363Z,30.00
2023-01-26T12:37:21.656Z,28.27
2023-01-26T12:39:53.384Z,28.97
2023-01-26T12:42:22.434Z,30.20
2023-01-26T12:44:56.643Z,27.90
2023-01-26T12:48:08.912Z,29.50
2023-01-26T12:50:44.956Z,26.27
2023-01-26T12:53:23.263Z,26.70
2023-01-26T12:56:08.272Z,26.23
2023-01-26T12:58:45.400Z,27.13
2023-01-26T13:01:20.445Z,30.60
2023-01-26T13:03:57.920Z,24.47
2023-01-26T13:06:31.111Z,26.53
2023-01-26T13:09:06.814Z,26.53
2023-01-26T13:11:47.261Z,25.53
2023-01-26T13:14:32.975Z,25.03
2023-01-26T13:17:20.759Z,26.83
2023-01-26T13:20:00.694Z,27.03
2023-01-26T13:22:42.183Z,49.33
2023-01-26T13:25:18.872Z,52.63
2023-01-26T13:28:03.069Z,41.80
2023-01-26T13:30:48.497Z,38.60
2023-01-26T13:33:18.334Z,37.67
2023-01-26T13:35:50.495Z,38.67
2023-01-26T13:38:29.068Z,41.83
2023-01-26T13:40:59.790Z,39.93
2023-01-26T13:43:40.915Z,32.03
2023-01-26T13:46:34.979Z,29.07
2023-01-26T13:49:04.265Z,28.00
2023-01-26T13:51:36.552Z,28.37
2023-01-26T13:54:14.910Z,30.03
2023-01-26T13:56:45.825Z,29.03
2023-01-26T13:59:22.683Z,29.57
2023-01-26T14:01:52.987Z,30.10
2023-01-26T14:04:30.134Z,29.47
2023-01-26T14:07:10.433Z,28.70
2023-01-26T14:09:51.715Z,29.73
2023-01-26T14:12:23.898Z,36.43
2023-01-26T14:14:55.873Z,48.17
2023-01-26T14:17:28.718Z,47.03
2023-01-26T14:19:59.585Z,43.10
2023-01-26T14:22:29.859Z,41.27
2023-01-26T14:24:58.320Z,45.27
2023-01-26T14:27:27.299Z,45.83
2023-01-26T14:29:56.626Z,41.97
2023-01-26T14:32:25.691Z,32.90
2023-01-26T14:34:59.063Z,31.93
2023-01-26T14:37:28.412Z,32.83
2023-01-26T14:40:25.001Z,31.00
2023-01-26T14:42:54.345Z,28.90
2023-01-26T14:45:27.552Z,28.73
2023-01-26T14:47:56.129Z,30.20
2023-01-26T14:50:28.359Z,31.77
2023-01-26T14:52:56.495Z,33.97
2023-01-26T14:55:32.264Z,37.43
2023-01-26T14:58:03.053Z,39.67
2023-01-26T15:00:36.489Z,41.17
2023-01-26T15:03:33.426Z,34.57
2023-01-26T15:06:14.268Z,33.33
2023-01-26T15:08:52.589Z,30.20
2023-01-26T15:11:58.954Z,32.63
2023-01-26T15:14:33.172Z,35.97
2023-01-26T15:17:01.829Z,36.10
2023-01-26T15:19:38.345Z,36.93
2023-01-26T15:22:06.832Z,35.03
2023-01-26T15:24:34.960Z,35.43
2023-01-26T15:27:07.179Z,33.97
2023-01-26T15:29:35.542Z,37.13
2023-01-26T15:32:04.701Z,38.03
2023-01-26T15:34:38.725Z,37.93
2023-01-26T15:37:30.500Z,38.30
2023-01-26T15:39:59.101Z,35.47
2023-01-26T15:42:30.360Z,35.47
2023-01-26T15:44:59.197Z,33.27
2023-01-26T15:47:27.871Z,36.00
2023-01-26T15:49:57.708Z,36.50
2023-01-26T15:52:30.747Z,37.10
2023-01-26T15:54:59.516Z,38.33
2023-01-26T15:57:28.301Z,48.10
2023-01-26T15:59:56.563Z,67.70
2023-01-26T16:02:25.469Z,74.13
2023-01-26T16:04:53.877Z,70.10
2023-01-26T16:07:22.317Z,74.13
2023-01-26T16:09:52.084Z,74.83
2023-01-26T16:12:31.119Z,72.97
2023-01-26T16:14:59.966Z,78.80
2023-01-26T16:17:28.170Z,71.63
2023-01-26T16:19:56.002Z,77.23
2023-01-26T16:22:24.156Z,73.33
2023-01-26T16:24:52.009Z,73.03
2023-01-26T16:27:22.090Z,82.63
2023-01-26T16:29:51.348Z,94.60
2023-01-26T16:32:28.913Z,83.80
2023-01-26T16:34:57.740Z,77.27
2023-01-26T16:37:26.731Z,66.10
2023-01-26T16:39:54.950Z,62.67
2023-01-26T16:42:23.886Z,55.17
2023-01-26T16:44:52.600Z,47.00
2023-01-26T16:47:21.588Z,47.60
2023-01-26T16:49:50.629Z,49.20
2023-01-26T16:52:19.890Z,46.33
2023-01-26T16:54:50.352Z,40.93
2023-01-26T16:57:18.962Z,48.03
2023-01-26T16:59:47.579Z,56.00
2023-01-26T17:02:26.666Z,66.53
2023-01-26T17:04:55.325Z,63.90
2023-01-26T17:07:23.834Z,56.07
2023-01-26T17:09:51.958Z,53.83
2023-01-26T17:12:21.049Z,68.57
2023-01-26T17:14:49.382Z,67.43
2023-01-26T17:17:18.753Z,73.30
2023-01-26T17:19:47.000Z,69.77
2023-01-26T17:22:15.596Z,70.40
2023-01-26T17:24:44.015Z,65.10
2023-01-26T17:27:13.171Z,68.97
2023-01-26T17:29:42.684Z,64.70
2023-01-26T17:32:11.940Z,60.37
2023-01-26T17:34:40.527Z,58.87
2023-01-26T17:37:09.813Z,50.03
2023-01-26T17:39:37.978Z,52.03
2023-01-26T17:42:06.350Z,47.77
2023-01-26T17:44:34.672Z,46.57
2023-01-26T17:47:02.952Z,47.97
2023-01-26T17:49:30.872Z,47.20
2023-01-26T17:51:59.246Z,49.97
2023-01-26T17:54:27.791Z,48.63
2023-01-26T17:56:56.206Z,54.13
2023-01-26T17:59:25.504Z,68.87
2023-01-26T18:01:53.807Z,67.57
2023-01-26T18:04:21.724Z,65.93
2023-01-26T18:06:50.195Z,63.60
2023-01-26T18:09:18.151Z,59.37
2023-01-26T18:11:46.838Z,55.73
2023-01-26T18:14:15.296Z,55.57
2023-01-26T18:16:44.103Z,84.23
2023-01-26T18:19:12.054Z,47.53
2023-01-26T18:21:40.549Z,47.47
2023-01-26T18:24:08.627Z,46.20
2023-01-26T18:26:37.652Z,50.27
2023-01-26T18:29:06.517Z,47.33
2023-01-26T18:31:35.911Z,50.40
2023-01-26T18:34:05.521Z,48.03
2023-01-26T18:36:34.027Z,48.30
2023-01-26T18:39:05.171Z,49.33
2023-01-26T18:41:34.532Z,48.30
2023-01-26T18:44:04.753Z,49.13
2023-01-26T18:46:35.186Z,53.17
2023-01-26T18:49:04.174Z,50.83
2023-01-26T18:51:33.824Z,47.87
2023-01-26T18:54:04.365Z,49.00
2023-01-26T18:56:34.186Z,46.93
2023-01-26T18:59:03.959Z,46.43
2023-01-26T19:01:32.608Z,49.33
2023-01-26T19:04:04.557Z,54.50
2023-01-26T19:06:35.709Z,49.40
2023-01-26T19:09:06.723Z,48.00
2023-01-26T19:11:36.422Z,51.27
2023-01-26T19:14:07.392Z,52.07
2023-01-26T19:16:38.150Z,50.23
2023-01-26T19:19:07.997Z,184.10
2023-01-26T19:21:36.663Z,86.70
2023-01-26T19:24:08.177Z,72.40
2023-01-26T19:26:36.888Z,78.70
2023-01-26T19:29:12.121Z,118.37
2023-01-26T19:31:40.156Z,66.33
2023-01-26T19:34:13.600Z,50.87
2023-01-26T19:36:42.237Z,51.10
2023-01-26T19:39:11.788Z,71.50
2023-01-26T19:41:39.832Z,81.47
2023-01-26T19:44:08.771Z,57.27
2023-01-26T19:46:36.673Z,59.40
2023-01-26T19:49:07.879Z,63.53
2023-01-26T19:51:36.110Z,66.60
2023-01-26T19:54:05.538Z,64.60
2023-01-26T19:56:37.763Z,54.97
2023-01-26T19:59:10.762Z,68.60
2023-01-26T20:01:39.664Z,61.10
2023-01-26T20:04:11.862Z,52.73
2023-01-26T20:06:40.093Z,50.07
2023-01-26T20:09:09.505Z,51.40
2023-01-26T20:11:37.759Z,52.20
2023-01-26T20:14:11.748Z,50.03
2023-01-26T20:16:45.037Z,52.10
2023-01-26T20:19:13.637Z,55.87
2023-01-26T20:21:42.601Z,66.37
2023-01-26T20:24:13.653Z,62.63
2023-01-26T20:26:44.422Z,60.63
2023-01-26T20:29:15.360Z,61.60
2023-01-26T20:31:43.450Z,59.80
2023-01-26T20:34:12.016Z,58.10
2023-01-26T20:36:40.867Z,71.90
2023-01-26T20:39:10.599Z,60.00
2023-01-26T20:41:39.517Z,67.17
2023-01-26T20:44:08.446Z,54.30
2023-01-26T20:46:38.986Z,55.80
2023-01-26T20:49:11.605Z,53.10
2023-01-26T20:51:42.796Z,51.17
2023-01-26T20:54:15.614Z,58.07
2023-01-26T20:56:45.840Z,53.03
2023-01-26T20:59:15.039Z,44.67
2023-01-26T21:01:43.986Z,53.60
2023-01-26T21:04:12.375Z,50.83
2023-01-26T21:06:41.866Z,51.83
2023-01-26T21:09:12.654Z,71.10
2023-01-26T21:11:40.928Z,108.20
2023-01-26T21:14:12.123Z,94.30
2023-01-26T21:16:40.585Z,124.30
2023-01-26T21:19:08.976Z,110.57
2023-01-26T21:21:36.839Z,82.53
2023-01-26T21:24:05.458Z,74.67
2023-01-26T21:26:33.557Z,57.70
2023-01-26T21:29:02.171Z,50.13
2023-01-26T21:31:31.535Z,48.50
2023-01-26T21:34:00.729Z,46.53
2023-01-26T21:36:31.138Z,44.83
2023-01-26T21:39:01.361Z,45.93
2023-01-26T21:41:49.820Z,45.60
2023-01-26T21:44:19.755Z,45.57
2023-01-26T21:46:48.450Z,46.00
2023-01-26T21:49:18.062Z,42.93
2023-01-26T21:52:04.922Z,44.83
2023-01-26T21:54:33.740Z,47.17
2023-01-26T21:57:02.524Z,45.83
2023-01-26T21:59:31.653Z,43.10
2023-01-26T22:01:59.955Z,45.27
2023-01-26T22:04:30.324Z,43.03
2023-01-26T22:07:00.807Z,44.50
2023-01-26T22:09:31.757Z,42.47
2023-01-26T22:12:01.829Z,43.73
2023-01-26T22:14:30.770Z,46.43
2023-01-26T22:16:59.162Z,46.37
2023-01-26T22:19:28.367Z,47.20
2023-01-26T22:21:56.306Z,47.03
2023-01-26T22:24:24.586Z,48.90
2023-01-26T22:26:52.339Z,50.43
2023-01-26T22:29:20.463Z,48.40
2023-01-26T22:31:50.438Z,50.60
2023-01-26T22:34:18.810Z,47.47
2023-01-26T22:36:46.738Z,48.27
2023-01-26T22:39:14.773Z,52.37
2023-01-26T22:41:43.033Z,46.20
2023-01-26T22:44:11.442Z,46.97
2023-01-26T22:46:39.299Z,47.20
2023-01-26T22:49:07.357Z,45.17
2023-01-26T22:56:11.033Z,43.93
2023-01-26T22:58:47.812Z,44.20
2023-01-26T23:01:24.220Z,44.20
2023-01-26T23:08:26.222Z,40.60
2023-01-26T23:11:04.929Z,41.00
2023-01-26T23:13:33.269Z,38.70
2023-01-26T23:16:01.114Z,41.80
2023-01-26T23:18:29.478Z,42.57
2023-01-26T23:20:58.626Z,42.50
2023-01-26T23:23:27.206Z,44.27
2023-01-26T23:25:55.374Z,49.97
2023-01-26T23:28:33.785Z,44.83
2023-01-26T23:31:01.860Z,43.50
2023-01-26T23:33:31.217Z,44.50
2023-01-26T23:35:59.025Z,40.77
2023-01-26T23:38:28.460Z,44.23
2023-01-26T23:40:56.352Z,41.37
2023-01-26T23:43:24.668Z,41.63
2023-01-26T23:45:52.563Z,41.17
2023-01-26T23:48:21.044Z,40.77
2023-01-26T23:50:48.766Z,41.93
2023-01-26T23:53:16.722Z,41.90
2023-01-26T23:55:44.516Z,43.70
2023-01-26T23:58:12.463Z,40.87
